Charlotte, NC (28229)

7:01 PM EDT on May 29, 2015 (GMT -0400)
St. Clair Subdivision | | Change Station
CLOSE
Current Station
Personal Weather Station
Location: Matthews, NC
Elevation: 663 ft
Nearby Weather Stations

Elev 663 ft 35.16 °N, 80.73 °W | Updated 1 minute ago

Partly Cloudy
Partly Cloudy
83.0 °F
Feels Like 85 °F
N
0.0
Wind Variable Wind from North
Gusts 0.0 mph

Today
High -- | Low -- °F
--% Chance of Precip.
Yesterday
High -- | Low -- °F
Precip. -- in
6:10 AM 8:30 PM
Waxing Gibbous, 86% visible
Pressure 30.13 in
Visibility 10.0 miles
Clouds Few 5000 ft
Scattered Clouds 25000 ft
Heat Index 85 °F
Dew Point 66 °F
Humidity 57%
Rainfall -999.00 in
Snow Depth Not available.
UV 1 out of 12
Pollen 5.80 out of 12
Air Quality Not available.
Flu Activity No Activity
METAR KCLT 292252Z 14008KT 10SM FEW050 SCT250 29/13 A3015 RMK AO2 SLP201 T02940128

More Conditions Fewer Conditions

Pressure 30.13 in
Visibility 10.0 miles
Clouds Few 5000 ft
Scattered Clouds 25000 ft
Heat Index 85 °F
Dew Point 66 °F
Humidity 57%
Rainfall -999.00 in
Snow Depth Not available.
UV 1 out of 12
Pollen 5.80 out of 12
Air Quality Not available.
Flu Activity No Activity
METAR KCLT 292252Z 14008KT 10SM FEW050 SCT250 29/13 A3015 RMK AO2 SLP201 T02940128

More Conditions Fewer Conditions

10-Day Weather Forecast

Almanac

Astronomy

May. 29, 2015 Rise Set
Actual Time
Civil Twilight
Nautical Twilight
Astronomical Twilight
Moon
Length of Visible Light
Length of Day
Tomorrow will be .
, % of the Moon is Illuminated

Today's Extremes

State Highs State Lows

Community

WunderPhotos

Upload Photos

1,825,397 photos uploaded!

WunderBlogs® & News

Nearby

Air Quality

  Air Quality AQ Index Pollutant
Not available.

Snow Depth

Station Depth Elevation

Earthquake Activity

City Distance Mag. Time & Date
Minimum magnitude displayed is 2.5.

Coastal Water Temperatures

Place Temperature

Stations

Nearby Weather Stations

Station Location Temp. Windchill Dew Point Humidity Wind Precip. Elev Updated Type